Time;durP1;ratioP1;P1;durP2;ratioP2;P2;SDS_P1;SDS_P2;PMS_P1;PMS_P2;Temp;Humidity;BMP_temperature;BMP_pressure;BME280_temperature;BME280_humidity;BME280_pressure;Samples;Min_cycle;Max_cycle;Signal;HPM_P1;HPM_P2
2024/01/03 00:00:20;;;;;;;15.75;8.32;;;;;;;3.10;100.00;98569.53;5093964;28;20036;-81
2024/01/03 00:02:46;;;;;;;20.70;9.27;;;;;;;2.41;100.00;98498.91;5083198;28;20029;-80
2024/01/03 00:05:12;;;;;;;16.20;9.15;;;;;;;2.67;100.00;98511.41;5087292;28;20029;-81
2024/01/03 00:07:38;;;;;;;18.05;9.07;;;;;;;2.71;100.00;98564.03;5055970;28;20182;-81
2024/01/03 00:10:25;;;;;;;14.30;8.73;;;;;;;2.64;100.00;98534.03;5070528;28;20552;-82
2024/01/03 00:12:51;;;;;;;16.05;8.32;;;;;;;2.62;100.00;98544.53;5080984;28;20126;-81
2024/01/03 00:15:36;;;;;;;15.63;8.73;;;;;;;3.04;100.00;98557.44;5083822;28;20544;-81
2024/01/03 00:18:06;;;;;;;19.10;9.02;;;;;;;3.08;100.00;98563.66;5075335;28;20028;-81
2024/01/03 00:20:35;;;;;;;14.65;9.05;;;;;;;2.95;100.00;98540.69;5076041;28;20488;-82
2024/01/03 00:23:06;;;;;;;20.73;10.40;;;;;;;2.82;100.00;98525.88;5079085;28;20499;-82
2024/01/03 00:25:32;;;;;;;16.58;9.70;;;;;;;2.81;100.00;98549.63;5075846;28;20495;-82
2024/01/03 00:27:59;;;;;;;13.38;7.15;;;;;;;2.32;100.00;98525.00;5089078;28;20032;-82
2024/01/03 00:30:25;;;;;;;12.88;6.53;;;;;;;2.21;100.00;98524.19;5091781;28;20036;-81
2024/01/03 00:32:51;;;;;;;12.57;6.57;;;;;;;2.03;100.00;98518.69;5075454;28;20388;-82
2024/01/03 00:35:17;;;;;;;15.25;7.22;;;;;;;2.12;100.00;98519.09;5075524;28;20036;-81
2024/01/03 00:37:43;;;;;;;17.15;9.00;;;;;;;1.96;100.00;98514.00;5095376;28;20028;-82
2024/01/03 00:40:29;;;;;;;20.27;9.73;;;;;;;2.35;100.00;98533.16;5075538;28;20028;-83
2024/01/03 00:42:54;;;;;;;19.98;10.52;;;;;;;2.36;100.00;98545.63;5091867;28;20078;-82
2024/01/03 00:45:19;;;;;;;18.48;11.45;;;;;;;2.19;100.00;98521.06;5077836;28;20217;-80
2024/01/03 00:47:45;;;;;;;17.52;10.98;;;;;;;2.03;100.00;98492.22;5075867;28;20032;-81
2024/01/03 00:50:10;;;;;;;19.55;12.38;;;;;;;1.93;100.00;98484.78;5075023;28;20024;-81
2024/01/03 00:52:36;;;;;;;20.58;10.38;;;;;;;1.81;100.00;98460.59;5075486;28;20032;-82
2024/01/03 00:55:01;;;;;;;16.88;8.93;;;;;;;1.81;100.00;98485.13;5086734;28;20032;-81
2024/01/03 00:57:27;;;;;;;15.38;6.35;;;;;;;1.53;100.00;98513.00;5083001;28;20032;-81
2024/01/03 00:59:52;;;;;;;12.85;5.38;;;;;;;1.43;100.00;98538.25;5081015;28;20412;-82
2024/01/03 01:02:17;;;;;;;8.65;4.10;;;;;;;1.13;100.00;98508.50;5073001;28;20021;-82
2024/01/03 01:04:43;;;;;;;7.00;3.60;;;;;;;1.19;100.00;98517.09;5073249;28;20058;-82
2024/01/03 01:07:09;;;;;;;14.00;5.72;;;;;;;1.03;100.00;98487.41;5076770;28;20392;-81
2024/01/03 01:09:34;;;;;;;10.43;6.47;;;;;;;1.28;100.00;98536.56;5075203;28;20026;-81
2024/01/03 01:12:00;;;;;;;25.08;12.95;;;;;;;1.04;100.00;98513.47;5083504;28;20023;-82
2024/01/03 01:14:25;;;;;;;12.45;6.38;;;;;;;1.06;100.00;98503.00;5091104;28;20119;-82
2024/01/03 01:16:50;;;;;;;10.48;5.35;;;;;;;0.30;100.00;98372.31;5084956;28;20020;-82
2024/01/03 01:19:16;;;;;;;10.57;5.25;;;;;;;0.94;100.00;98472.59;5082795;28;20476;-82
2024/01/03 01:21:42;;;;;;;9.93;4.22;;;;;;;1.25;100.00;98525.66;5074898;28;20125;-83
2024/01/03 01:24:07;;;;;;;6.82;4.30;;;;;;;1.09;100.00;98509.59;5074890;28;20127;-83
2024/01/03 01:26:32;;;;;;;6.20;4.25;;;;;;;1.06;100.00;98511.16;5078061;28;20036;-83
2024/01/03 01:28:58;;;;;;;15.82;7.70;;;;;;;1.03;100.00;98513.84;5075016;28;20089;-82
2024/01/03 01:31:23;;;;;;;23.80;10.43;;;;;;;0.82;100.00;98473.69;5074635;28;20020;-82
2024/01/03 01:33:48;;;;;;;13.00;6.15;;;;;;;1.34;100.00;98559.56;5076425;28;20043;-82
2024/01/03 01:36:14;;;;;;;9.00;4.85;;;;;;;1.20;100.00;98505.81;5082873;28;20031;-81
2024/01/03 01:38:40;;;;;;;9.05;4.78;;;;;;;1.21;100.00;98506.59;5082611;28;20020;-82
2024/01/03 01:41:05;;;;;;;7.15;4.07;;;;;;;1.43;100.00;98521.13;5058760;28;20028;-82
2024/01/03 01:43:30;;;;;;;7.60;4.47;;;;;;;1.47;100.00;98530.09;5074747;28;20484;-81
2024/01/03 01:45:57;;;;;;;8.00;5.40;;;;;;;1.48;100.00;98509.88;5085304;28;20099;-82
2024/01/03 01:48:23;;;;;;;12.68;5.35;;;;;;;1.19;100.00;98451.78;5077637;28;20032;-82
2024/01/03 01:50:50;;;;;;;9.50;6.22;;;;;;;1.54;100.00;98500.97;5074320;28;20020;-82
2024/01/03 01:53:15;;;;;;;11.27;6.45;;;;;;;1.66;100.00;98488.19;5090976;28;20503;-81
2024/01/03 01:55:42;;;;;;;16.67;6.80;;;;;;;1.76;100.00;98498.31;5073911;28;20020;-82
2024/01/03 01:58:08;;;;;;;11.25;6.20;;;;;;;1.77;100.00;98486.28;5079997;28;20101;-82
2024/01/03 02:00:36;;;;;;;12.23;7.05;;;;;;;1.81;100.00;98487.09;5075113;28;20020;-82
2024/01/03 02:03:02;;;;;;;12.07;7.47;;;;;;;1.61;100.00;98453.94;5074318;28;20121;-82
2024/01/03 02:05:28;;;;;;;14.95;7.25;;;;;;;1.92;100.00;98499.59;5073571;28;20028;-80
2024/01/03 02:07:53;;;;;;;14.27;7.30;;;;;;;1.99;100.00;98493.34;5082781;28;20032;-82
2024/01/03 02:10:19;;;;;;;15.45;7.55;;;;;;;2.01;100.00;98493.75;5086105;28;20040;-81
2024/01/03 02:12:44;;;;;;;12.57;6.90;;;;;;;1.66;100.00;98437.22;5054065;28;20024;-82
2024/01/03 02:15:09;;;;;;;14.15;7.00;;;;;;;2.01;100.00;98494.53;5073064;28;20016;-81
2024/01/03 02:17:37;;;;;;;14.25;8.13;;;;;;;2.02;100.00;98487.16;5073729;28;20055;-82
2024/01/03 02:20:03;;;;;;;17.02;8.55;;;;;;;1.80;100.00;98474.63;5086099;28;20045;-82
2024/01/03 02:22:29;;;;;;;12.07;6.15;;;;;;;2.02;100.00;98503.50;5073723;28;20056;-82
2024/01/03 02:24:54;;;;;;;9.32;5.25;;;;;;;2.05;100.00;98511.66;5073803;28;20061;-83
2024/01/03 02:27:20;;;;;;;12.45;5.95;;;;;;;1.80;100.00;98499.94;5092003;28;20408;-82
2024/01/03 02:29:45;;;;;;;16.90;6.45;;;;;;;1.94;100.00;98507.34;5074178;28;20020;-82
2024/01/03 02:32:10;;;;;;;14.38;6.35;;;;;;;1.74;100.00;98487.06;5091692;28;20032;-82
2024/01/03 02:34:36;;;;;;;11.18;6.03;;;;;;;1.48;100.00;98458.94;5087446;28;20073;-83
2024/01/03 02:37:02;;;;;;;12.57;6.18;;;;;;;1.86;100.00;98495.66;5080957;28;20090;-82
2024/01/03 02:39:27;;;;;;;16.02;7.00;;;;;;;1.70;100.00;98478.06;5071637;28;20483;-82
2024/01/03 02:41:53;;;;;;;24.50;9.48;;;;;;;2.05;100.00;98522.56;5075577;28;20035;-83
2024/01/03 02:44:21;;;;;;;38.10;14.63;;;;;;;1.75;100.00;98475.75;5077441;28;20024;-81
2024/01/03 02:46:47;;;;;;;24.80;8.85;;;;;;;1.75;100.00;98477.72;5082470;28;20031;-81
2024/01/03 02:49:12;;;;;;;9.07;5.55;;;;;;;1.90;100.00;98514.75;5074402;28;20016;-82
2024/01/03 02:51:38;;;;;;;13.82;6.95;;;;;;;1.72;100.00;98500.25;5068234;28;20029;-82
2024/01/03 02:54:03;;;;;;;10.13;6.00;;;;;;;1.11;100.00;98409.38;5090533;28;20060;-84
2024/01/03 02:56:28;;;;;;;8.43;4.63;;;;;;;1.57;100.00;98469.47;5086621;28;20032;-81
2024/01/03 02:58:54;;;;;;;7.28;4.45;;;;;;;1.67;100.00;98484.28;5082450;28;20596;-82
2024/01/03 03:01:19;;;;;;;7.88;4.38;;;;;;;1.83;100.00;98503.81;5077120;28;20023;-81
2024/01/03 03:03:45;;;;;;;7.68;4.93;;;;;;;1.91;100.00;98508.13;5091764;28;20024;-82
2024/01/03 03:06:10;;;;;;;11.57;5.03;;;;;;;1.94;100.00;98499.97;5083172;28;20055;-81
2024/01/03 03:08:36;;;;;;;6.38;4.00;;;;;;;1.79;100.00;98473.84;5079319;28;20415;-81
2024/01/03 03:11:03;;;;;;;7.20;4.25;;;;;;;1.64;100.00;98451.22;5086621;28;20119;-82
2024/01/03 03:13:28;;;;;;;7.68;4.20;;;;;;;2.05;100.00;98519.06;5080515;28;20028;-81
2024/01/03 03:15:53;;;;;;;5.95;3.67;;;;;;;1.70;100.00;98459.78;5085943;28;20533;-83
2024/01/03 03:18:19;;;;;;;6.28;4.00;;;;;;;1.90;100.00;98487.50;5058783;28;20063;-82
2024/01/03 03:20:44;;;;;;;9.63;4.22;;;;;;;1.78;100.00;98491.34;5057006;28;20036;-83
2024/01/03 03:23:10;;;;;;;7.13;4.13;;;;;;;1.69;100.00;98481.97;5077002;28;20486;-81
2024/01/03 03:25:35;;;;;;;6.22;3.80;;;;;;;1.44;100.00;98430.94;5074767;28;20024;-81
2024/01/03 03:28:02;;;;;;;7.88;3.90;;;;;;;1.92;100.00;98494.13;5078984;28;20020;-81
2024/01/03 03:30:27;;;;;;;7.18;3.88;;;;;;;2.08;100.00;98491.06;5076813;28;20415;-81
2024/01/03 03:32:52;;;;;;;7.60;4.40;;;;;;;1.87;100.00;98477.38;5076782;28;20024;-83
2024/01/03 03:35:18;;;;;;;9.57;4.90;;;;;;;1.60;100.00;98428.66;5084562;28;20103;-82
2024/01/03 03:37:43;;;;;;;9.13;5.00;;;;;;;2.13;100.00;98485.22;5074684;28;20049;-81
2024/01/03 03:40:09;;;;;;;7.63;4.72;;;;;;;2.37;100.00;98506.31;5077137;28;20036;-83
2024/01/03 03:42:34;;;;;;;7.28;4.93;;;;;;;2.23;100.00;98479.03;5082033;28;20031;-83
2024/01/03 03:45:00;;;;;;;8.77;4.05;;;;;;;2.08;100.00;98473.94;5081105;28;20124;-82
2024/01/03 03:47:25;;;;;;;8.90;4.15;;;;;;;1.95;100.00;98440.81;5076612;28;20081;-83
2024/01/03 03:49:50;;;;;;;8.70;4.30;;;;;;;1.87;100.00;98428.34;5078237;28;20115;-84
2024/01/03 03:52:16;;;;;;;7.75;4.63;;;;;;;2.27;100.00;98476.31;5075771;28;20107;-82
2024/01/03 03:54:41;;;;;;;10.02;4.90;;;;;;;2.39;100.00;98476.72;5086937;28;20051;-84
2024/01/03 03:57:07;;;;;;;10.45;5.78;;;;;;;2.41;100.00;98455.28;5073573;28;20074;-82
2024/01/03 03:59:32;;;;;;;12.57;6.60;;;;;;;2.64;100.00;98474.03;5069300;28;20032;-82
2024/01/03 04:01:57;;;;;;;13.98;7.32;;;;;;;2.29;100.00;98417.50;5089810;28;20046;-83
2024/01/03 04:04:23;;;;;;;11.70;6.97;;;;;;;2.47;100.00;98433.91;5076085;28;20134;-83
2024/01/03 04:06:49;;;;;;;10.32;6.47;;;;;;;2.31;100.00;98404.28;5073284;28;20055;-82
2024/01/03 04:09:14;;;;;;;11.45;6.35;;;;;;;2.62;100.00;98473.63;5073876;28;20020;-81
2024/01/03 04:11:41;;;;;;;14.57;7.07;;;;;;;2.35;100.00;98434.28;5058044;28;20016;-83
2024/01/03 04:14:07;;;;;;;13.57;6.53;;;;;;;2.66;100.00;98473.63;5069494;28;20020;-80
2024/01/03 04:16:33;;;;;;;13.02;6.75;;;;;;;2.70;100.00;98477.16;5080379;28;20020;-81
2024/01/03 04:18:58;;;;;;;8.35;5.40;;;;;;;2.04;100.00;98384.81;5065930;28;20024;-81
2024/01/03 04:21:24;;;;;;;12.48;6.25;;;;;;;2.43;100.00;98446.72;5072495;28;20045;-82
2024/01/03 04:23:49;;;;;;;10.80;6.53;;;;;;;2.43;100.00;98420.25;5065329;28;20043;-81
2024/01/03 04:26:15;;;;;;;10.82;6.72;;;;;;;2.28;100.00;98388.72;5085403;28;20024;-82
2024/01/03 04:28:40;;;;;;;17.45;8.18;;;;;;;2.06;100.00;98335.34;5082871;28;20039;-82
2024/01/03 04:31:06;;;;;;;18.00;10.20;;;;;;;2.69;100.00;98426.50;5089309;28;20677;-81
2024/01/03 04:33:31;;;;;;;17.55;9.32;;;;;;;2.63;100.00;98408.97;5103038;28;20024;-82
2024/01/03 04:35:57;;;;;;;18.70;9.88;;;;;;;2.56;100.00;98360.66;5075608;28;20519;-81
2024/01/03 04:38:22;;;;;;;27.42;12.00;;;;;;;2.74;100.00;98415.19;5075921;28;20065;-81
2024/01/03 04:40:48;;;;;;;19.67;9.95;;;;;;;2.28;100.00;98336.94;5079606;28;20028;-80
2024/01/03 04:43:13;;;;;;;17.35;7.10;;;;;;;2.17;100.00;98374.28;5075320;28;20038;-81
2024/01/03 04:45:39;;;;;;;23.23;8.93;;;;;;;2.12;100.00;98395.69;5073207;28;20043;-80
2024/01/03 04:48:05;;;;;;;14.80;7.55;;;;;;;2.02;100.00;98384.41;5063970;28;20024;-81
2024/01/03 04:50:30;;;;;;;12.05;6.47;;;;;;;2.05;100.00;98399.19;5091370;28;20059;-81
2024/01/03 04:52:57;;;;;;;11.15;6.22;;;;;;;2.38;100.00;98450.63;5060652;28;20111;-82
2024/01/03 04:55:23;;;;;;;11.05;5.65;;;;;;;2.04;100.00;98405.81;5075125;28;20024;-81
2024/01/03 04:57:48;;;;;;;8.55;5.25;;;;;;;2.04;100.00;98438.50;5079484;28;20093;-81
2024/01/03 05:00:14;;;;;;;15.52;4.68;;;;;;;2.08;100.00;98454.84;5092947;28;20042;-81
2024/01/03 05:02:39;;;;;;;8.43;5.47;;;;;;;1.70;100.00;98416.22;5077405;28;20172;-80
2024/01/03 05:05:05;;;;;;;14.82;7.63;;;;;;;1.29;100.00;98379.50;5075338;28;20032;-81
2024/01/03 05:07:33;;;;;;;10.23;5.68;;;;;;;1.35;100.00;98389.66;5075912;28;20024;-82
2024/01/03 05:09:59;;;;;;;10.00;5.22;;;;;;;1.76;100.00;98458.25;5092678;28;20080;-80
2024/01/03 05:12:25;;;;;;;8.48;4.65;;;;;;;1.86;100.00;98460.25;5081639;28;20024;-82
2024/01/03 05:14:50;;;;;;;8.27;4.97;;;;;;;2.09;100.00;98495.34;5089969;28;20491;-81
2024/01/03 05:17:16;;;;;;;20.25;9.32;;;;;;;1.91;100.00;98429.13;5080391;28;20564;-81
2024/01/03 05:19:43;;;;;;;17.95;9.20;;;;;;;2.05;100.00;98446.28;5071704;28;20561;-82
2024/01/03 05:22:08;;;;;;;17.43;9.63;;;;;;;1.92;100.00;98381.66;5072122;28;20563;-79
2024/01/03 05:24:34;;;;;;;13.35;5.72;;;;;;;1.85;100.00;98365.31;5075260;28;20123;-81
2024/01/03 05:27:00;;;;;;;9.98;5.60;;;;;;;2.62;100.00;98475.56;5070988;28;20043;-80
2024/01/03 05:29:26;;;;;;;9.38;5.10;;;;;;;2.73;100.00;98490.00;5084431;28;20037;-82
2024/01/03 05:31:51;;;;;;;10.73;6.05;;;;;;;2.07;100.00;98406.97;5082782;28;20032;-82
2024/01/03 05:34:17;;;;;;;10.48;6.03;;;;;;;2.53;100.00;98477.91;5091730;28;20024;-81
2024/01/03 05:36:42;;;;;;;11.05;6.55;;;;;;;2.63;100.00;98491.56;5086342;28;20048;-83
2024/01/03 05:39:08;;;;;;;11.40;6.57;;;;;;;2.53;100.00;98486.88;5078187;28;20036;-80
2024/01/03 05:41:33;;;;;;;19.83;10.20;;;;;;;2.53;100.00;98488.81;5083377;28;20484;-81
2024/01/03 05:43:59;;;;;;;14.15;8.10;;;;;;;2.39;100.00;98435.06;5061119;28;20032;-82
2024/01/03 05:46:24;;;;;;;12.98;6.75;;;;;;;2.62;100.00;98459.22;5074495;28;20028;-81
2024/01/03 05:48:50;;;;;;;12.02;6.22;;;;;;;2.52;100.00;98413.63;5061861;28;20031;-79
2024/01/03 05:51:18;;;;;;;10.85;5.93;;;;;;;3.20;100.00;98500.50;5074019;28;20565;-82
2024/01/03 05:53:47;;;;;;;14.18;6.18;;;;;;;2.67;100.00;98434.28;5075917;28;20036;-83
2024/01/03 05:56:14;;;;;;;9.15;5.70;;;;;;;2.57;100.00;98414.03;5089101;28;20484;-81
2024/01/03 05:58:39;;;;;;;12.10;7.07;;;;;;;2.62;100.00;98415.56;5076179;28;20043;-81
2024/01/03 06:01:06;;;;;;;14.65;7.78;;;;;;;2.69;100.00;98410.91;5093405;28;20484;-79
2024/01/03 06:03:32;;;;;;;67.43;28.85;;;;;;;3.11;100.00;98466.59;5067183;28;20064;-79
2024/01/03 06:05:57;;;;;;;50.50;22.13;;;;;;;3.14;100.00;98444.75;5065998;28;20059;-81
2024/01/03 06:08:23;;;;;;;75.95;28.17;;;;;;;3.01;100.00;98418.28;5073828;28;20476;-80
2024/01/03 06:10:49;;;;;;;52.70;20.48;;;;;;;3.14;100.00;98389.38;5102849;28;20523;-81
2024/01/03 06:13:15;;;;;;;70.13;27.67;;;;;;;3.73;100.00;98474.25;5071779;28;20123;-80
2024/01/03 06:15:41;;;;;;;38.80;18.50;;;;;;;3.77;100.00;98464.84;5062052;28;20055;-80
2024/01/03 06:18:06;;;;;;;25.25;13.63;;;;;;;3.66;100.00;98442.25;5091086;28;20063;-80
2024/01/03 06:20:32;;;;;;;23.33;11.23;;;;;;;3.73;100.00;98453.16;5072067;28;20063;-81
2024/01/03 06:22:57;;;;;;;27.30;13.40;;;;;;;3.25;100.00;98403.78;5071404;28;20052;-80
2024/01/03 06:25:22;;;;;;;45.88;19.50;;;;;;;2.76;100.00;98339.19;5074159;28;20028;-80
2024/01/03 06:27:48;;;;;;;48.15;24.95;;;;;;;3.28;100.00;98439.25;5074516;28;20138;-80
2024/01/03 06:30:13;;;;;;;35.08;18.55;;;;;;;3.41;100.00;98464.19;5064241;28;20036;-82
2024/01/03 06:32:39;;;;;;;40.03;21.40;;;;;;;3.34;100.00;98463.41;5075414;28;20032;-79
2024/01/03 06:35:05;;;;;;;90.03;33.80;;;;;;;3.10;100.00;98445.94;5086073;28;20556;-82
2024/01/03 06:37:30;;;;;;;38.45;18.70;;;;;;;3.50;100.00;98482.88;5072188;28;20023;-82
2024/01/03 06:39:56;;;;;;;35.85;21.10;;;;;;;3.05;100.00;98411.63;5076555;28;20522;-80
2024/01/03 06:42:21;;;;;;;34.28;17.70;;;;;;;3.39;100.00;98449.38;5076465;28;20039;-80
2024/01/03 06:44:47;;;;;;;25.63;14.20;;;;;;;3.25;100.00;98406.53;5076569;28;20035;-80
2024/01/03 06:47:12;;;;;;;24.65;15.57;;;;;;;3.79;100.00;98473.44;5079530;28;20468;-80
2024/01/03 06:49:38;;;;;;;28.83;16.33;;;;;;;3.57;100.00;98418.09;5074417;28;20017;-80
2024/01/03 06:52:03;;;;;;;28.40;15.85;;;;;;;3.67;100.00;98408.31;5070122;28;20491;-81
2024/01/03 06:54:29;;;;;;;29.63;14.60;;;;;;;4.33;100.00;98474.72;5064295;28;20052;-80
2024/01/03 06:56:54;;;;;;;28.80;12.45;;;;;;;4.30;100.00;98463.78;5093983;28;20043;-80
2024/01/03 06:59:20;;;;;;;16.15;8.15;;;;;;;3.10;100.00;98345.72;5068850;28;20024;-80
2024/01/03 07:01:45;;;;;;;19.70;13.07;;;;;;;4.13;100.00;98519.34;5070908;28;20059;-80
2024/01/03 07:04:11;;;;;;;14.15;8.38;;;;;;;4.09;100.00;98500.25;5076203;28;20035;-81
2024/01/03 07:06:36;;;;;;;13.93;8.30;;;;;;;4.56;100.00;98515.22;5080239;28;20063;-83
2024/01/03 07:09:02;;;;;;;15.75;8.68;;;;;;;4.17;100.00;98419.72;5056126;28;20082;-81
2024/01/03 07:11:27;;;;;;;19.23;11.68;;;;;;;4.50;100.00;98440.22;5069534;28;20093;-81
2024/01/03 07:13:53;;;;;;;18.75;9.50;;;;;;;5.07;100.00;98491.75;5081541;28;20488;-83
2024/01/03 07:16:18;;;;;;;20.55;12.90;;;;;;;5.00;100.00;98453.50;5075734;28;20024;-81
2024/01/03 07:18:44;;;;;;;28.55;15.25;;;;;;;5.00;100.00;98464.44;5081025;28;20023;-84
2024/01/03 07:21:09;;;;;;;40.45;18.35;;;;;;;5.26;100.00;98489.22;5075718;28;20055;-80
2024/01/03 07:23:35;;;;;;;40.20;15.95;;;;;;;5.06;100.00;98492.94;5062410;28;20051;-80
2024/01/03 07:26:00;;;;;;;25.77;15.57;;;;;;;5.04;100.00;98424.91;5075801;28;20032;-80
2024/01/03 07:28:26;;;;;;;30.42;16.05;;;;;;;4.85;100.00;98401.59;5055863;28;20029;-81
2024/01/03 07:30:51;;;;;;;28.80;16.52;;;;;;;4.49;100.00;98428.50;5069219;28;20046;-80
2024/01/03 07:33:17;;;;;;;71.63;24.65;;;;;;;5.12;100.00;98469.41;5075714;28;20046;-82
2024/01/03 07:35:42;;;;;;;80.78;30.10;;;;;;;5.16;100.00;98409.91;5074405;28;20027;-82
2024/01/03 07:38:08;;;;;;;48.90;24.98;;;;;;;5.82;100.00;98461.59;5062171;28;20027;-83
2024/01/03 07:40:34;;;;;;;40.42;21.38;;;;;;;5.91;100.00;98438.00;5075352;28;20040;-81
2024/01/03 07:42:59;;;;;;;40.92;25.27;;;;;;;6.16;99.59;98450.63;5062272;28;20107;-81
2024/01/03 07:45:25;;;;;;;42.60;21.38;;;;;;;5.96;99.97;98445.81;5075233;28;20114;-80
2024/01/03 07:47:50;;;;;;;35.97;16.40;;;;;;;5.67;100.00;98459.03;5093302;28;20054;-80
2024/01/03 07:50:16;;;;;;;31.17;14.88;;;;;;;5.53;100.00;98470.16;5093444;28;20106;-81
2024/01/03 07:52:45;;;;;;;25.17;13.50;;;;;;;5.10;100.00;98428.75;5075081;28;20035;-82
2024/01/03 07:55:10;;;;;;;20.08;9.90;;;;;;;4.75;100.00;98394.28;5093408;28;20087;-80
2024/01/03 07:57:36;;;;;;;17.45;9.25;;;;;;;5.32;100.00;98443.75;5086044;28;20119;-80
2024/01/03 08:00:01;;;;;;;19.65;9.82;;;;;;;5.28;100.00;98409.38;5069142;28;20020;-78
2024/01/03 08:02:28;;;;;;;13.65;8.73;;;;;;;5.68;100.00;98435.13;5093297;28;20024;-81
2024/01/03 08:04:53;;;;;;;15.27;8.73;;;;;;;5.48;100.00;98376.69;5075029;28;20028;-79
2024/01/03 08:07:18;;;;;;;23.00;12.20;;;;;;;6.18;100.00;98462.75;5075531;28;20020;-81
2024/01/03 08:09:44;;;;;;;23.48;12.60;;;;;;;6.22;100.00;98441.50;5093218;28;20561;-81
2024/01/03 08:12:09;;;;;;;21.00;10.27;;;;;;;5.58;100.00;98360.09;5095203;28;20028;-82
2024/01/03 08:14:35;;;;;;;35.85;15.27;;;;;;;6.16;100.00;98429.44;5087248;28;20031;-83
2024/01/03 08:17:01;;;;;;;21.33;12.45;;;;;;;6.41;100.00;98470.25;5058652;28;20036;-81
2024/01/03 08:19:27;;;;;;;38.85;18.80;;;;;;;6.31;100.00;98450.03;5069630;28;20081;-83
2024/01/03 08:21:52;;;;;;;29.85;15.43;;;;;;;6.10;100.00;98374.28;5094307;28;20060;-81
2024/01/03 08:24:18;;;;;;;26.80;10.13;;;;;;;6.57;100.00;98431.22;5060666;28;20033;-82
2024/01/03 08:26:45;;;;;;;21.77;11.52;;;;;;;6.40;99.44;98431.06;5062068;28;20030;-80
2024/01/03 08:29:11;;;;;;;24.90;9.65;;;;;;;5.82;100.00;98379.38;5074915;28;20051;-80
2024/01/03 08:31:37;;;;;;;19.38;11.20;;;;;;;6.30;100.00;98455.91;5074558;28;20063;-83
2024/01/03 08:34:02;;;;;;;20.27;10.20;;;;;;;5.85;100.00;98375.78;5074497;28;20480;-80
2024/01/03 08:36:44;;;;;;;28.45;10.50;;;;;;;5.91;100.00;98435.25;5074848;28;20038;-82
2024/01/03 08:39:10;;;;;;;40.35;17.00;;;;;;;5.54;100.00;98370.34;5071544;28;20113;-80
2024/01/03 08:41:36;;;;;;;30.75;14.02;;;;;;;6.07;100.00;98432.72;5092674;28;20055;-81
2024/01/03 08:44:03;;;;;;;28.85;15.88;;;;;;;6.30;100.00;98480.59;5079001;28;20028;-80
2024/01/03 08:46:31;;;;;;;91.53;43.47;;;;;;;5.97;100.00;98405.41;5074211;28;20024;-80
2024/01/03 08:48:57;;;;;;;53.15;25.17;;;;;;;6.59;100.00;98451.56;5074114;28;20032;-80
2024/01/03 08:51:23;;;;;;;33.28;18.20;;;;;;;6.53;100.00;98437.53;5082791;28;20119;-79
2024/01/03 08:53:49;;;;;;;41.05;21.65;;;;;;;6.18;100.00;98435.31;5070305;28;20035;-79
2024/01/03 08:56:16;;;;;;;36.83;20.67;;;;;;;5.87;100.00;98344.06;5082909;28;20031;-81
2024/01/03 08:58:42;;;;;;;53.33;27.17;;;;;;;5.71;100.00;98267.91;5069286;28;20033;-81
2024/01/03 09:01:08;;;;;;;47.97;24.35;;;;;;;6.82;100.00;98426.84;5073968;28;20385;-80
2024/01/03 09:03:38;;;;;;;38.58;21.20;;;;;;;6.41;100.00;98331.09;5078382;28;20498;-80
2024/01/03 09:06:04;;;;;;;34.75;20.05;;;;;;;6.88;100.00;98399.69;5091803;28;20084;-80
2024/01/03 09:08:30;;;;;;;34.10;19.48;;;;;;;6.63;100.00;98393.88;5088179;28;20036;-80
2024/01/03 09:10:55;;;;;;;27.33;16.23;;;;;;;6.67;100.00;98391.84;5053606;28;20035;-80
2024/01/03 09:13:20;;;;;;;32.92;17.63;;;;;;;6.54;100.00;98342.25;5069717;28;20032;-80
2024/01/03 09:15:46;;;;;;;35.00;17.40;;;;;;;6.63;100.00;98411.09;5083843;28;20138;-83
2024/01/03 09:18:11;;;;;;;33.45;17.27;;;;;;;6.19;100.00;98343.59;5073297;28;20027;-79
2024/01/03 09:20:37;;;;;;;34.67;17.35;;;;;;;6.28;100.00;98340.31;5091501;28;20404;-79
2024/01/03 09:23:02;;;;;;;27.92;17.27;;;;;;;6.73;100.00;98381.94;5073093;28;20048;-81
2024/01/03 09:25:27;;;;;;;33.35;17.08;;;;;;;6.69;100.00;98342.78;5073076;28;20024;-80
2024/01/03 09:27:54;;;;;;;45.08;20.13;;;;;;;6.91;100.00;98393.38;5059864;28;20048;-81
2024/01/03 09:30:20;;;;;;;34.05;17.40;;;;;;;6.94;99.78;98376.81;5063606;28;20024;-82
2024/01/03 09:32:45;;;;;;;25.35;15.32;;;;;;;7.21;99.75;98409.69;5069989;28;20039;-81
2024/01/03 09:35:11;;;;;;;23.55;14.85;;;;;;;7.35;99.30;98390.19;5073313;28;20119;-80
2024/01/03 09:37:37;;;;;;;24.13;13.20;;;;;;;7.15;98.67;98363.91;5073304;28;20024;-82
2024/01/03 09:40:04;;;;;;;22.70;13.45;;;;;;;7.41;98.56;98393.22;5091426;28;20476;-81
2024/01/03 09:42:30;;;;;;;21.75;12.88;;;;;;;7.47;97.98;98388.78;5088414;28;20032;-79
2024/01/03 09:44:56;;;;;;;28.88;14.90;;;;;;;7.39;98.88;98370.88;5062882;28;20552;-83
2024/01/03 09:47:22;;;;;;;28.45;16.02;;;;;;;7.17;97.99;98309.31;5072929;28;20032;-80
2024/01/03 09:49:47;;;;;;;54.42;24.00;;;;;;;7.50;98.27;98356.91;5073262;28;20127;-81
2024/01/03 09:52:12;;;;;;;46.50;21.80;;;;;;;7.67;97.52;98347.53;5074725;28;20039;-80
2024/01/03 09:54:39;;;;;;;32.63;16.70;;;;;;;7.53;97.31;98295.63;5053380;28;20028;-80
2024/01/03 09:57:07;;;;;;;102.35;45.40;;;;;;;7.58;95.47;98259.38;5053112;28;20032;-81
2024/01/03 09:59:33;;;;;;;28.20;15.82;;;;;;;7.95;95.69;98335.91;5062141;28;20035;-80
2024/01/03 10:01:58;;;;;;;28.65;13.77;;;;;;;7.61;95.69;98307.97;5090941;28;20012;-82
2024/01/03 10:04:27;;;;;;;26.45;13.98;;;;;;;8.06;94.87;98339.19;5080659;28;20056;-81
2024/01/03 10:06:54;;;;;;;40.08;21.77;;;;;;;7.49;94.90;98305.88;5074688;28;20024;-80
2024/01/03 10:09:23;;;;;;;79.97;38.50;;;;;;;7.65;96.54;98308.69;5090700;28;20028;-80
2024/01/03 10:11:53;;;;;;;94.45;46.05;;;;;;;7.41;94.92;98255.03;5068064;28;20262;-81
2024/01/03 10:14:22;;;;;;;33.28;18.20;;;;;;;8.07;92.87;98343.50;5090849;28;20020;-80
2024/01/03 10:16:48;;;;;;;34.78;17.40;;;;;;;7.45;93.90;98305.97;5072627;28;20020;-80
2024/01/03 10:19:14;;;;;;;44.65;18.00;;;;;;;7.43;95.65;98341.34;5090994;28;20089;-82
2024/01/03 10:21:50;;;;;;;37.50;18.08;;;;;;;7.51;97.27;98344.72;5072533;28;20047;-81
2024/01/03 10:24:24;;;;;;;27.33;14.73;;;;;;;7.27;98.41;98333.81;5072652;28;20044;-81
2024/01/03 10:26:50;;;;;;;30.38;16.00;;;;;;;7.31;99.81;98345.50;5091012;28;20101;-80
2024/01/03 10:29:18;;;;;;;31.65;17.35;;;;;;;7.29;99.90;98301.19;5072596;28;20097;-79
2024/01/03 10:31:46;;;;;;;30.20;14.95;;;;;;;7.20;98.87;98294.72;5073068;28;20036;-81
2024/01/03 10:34:17;;;;;;;30.00;14.38;;;;;;;7.52;99.58;98313.31;5075189;28;20037;-80
2024/01/03 10:36:46;;;;;;;25.23;14.07;;;;;;;7.19;98.28;98257.44;5052763;28;20116;-80
2024/01/03 10:39:15;;;;;;;25.80;13.60;;;;;;;7.18;99.46;98308.09;5086515;28;20506;-81
2024/01/03 10:41:46;;;;;;;70.13;35.65;;;;;;;6.88;100.00;98267.88;5090992;28;20051;-80
2024/01/03 10:44:14;;;;;;;35.45;19.60;;;;;;;7.03;100.00;98282.13;5090695;28;20023;-79
2024/01/03 10:46:44;;;;;;;50.22;24.77;;;;;;;7.48;100.00;98320.81;5079509;28;20500;-83
2024/01/03 10:49:09;;;;;;;51.83;25.42;;;;;;;7.34;99.76;98264.22;5075210;28;20028;-79
2024/01/03 10:51:47;;;;;;;36.03;17.85;;;;;;;7.40;99.16;98289.22;5061752;28;20039;-81
2024/01/03 10:54:16;;;;;;;28.38;14.73;;;;;;;7.67;98.23;98304.31;5071608;28;20028;-80
2024/01/03 10:56:47;;;;;;;31.92;15.40;;;;;;;7.76;97.68;98295.47;5059433;28;20064;-80
2024/01/03 10:59:14;;;;;;;26.00;14.73;;;;;;;7.71;96.32;98296.00;5059574;28;20406;-81
2024/01/03 11:02:01;;;;;;;33.92;17.23;;;;;;;7.81;95.37;98291.44;5072345;28;20054;-79
2024/01/03 11:04:37;;;;;;;31.77;18.08;;;;;;;7.65;97.23;98281.97;5080341;28;20035;-81
2024/01/03 11:07:29;;;;;;;48.58;24.58;;;;;;;7.52;96.93;98266.56;5085740;28;20047;-80
2024/01/03 11:09:54;;;;;;;39.45;19.77;;;;;;;7.50;97.72;98255.22;5071603;28;20032;-80
2024/01/03 11:12:27;;;;;;;55.08;23.58;;;;;;;7.69;98.09;98259.91;5075858;28;20028;-79
2024/01/03 11:14:53;;;;;;;34.58;18.52;;;;;;;7.53;98.25;98252.41;5075563;28;20454;-79
2024/01/03 11:17:32;;;;;;;37.55;19.38;;;;;;;7.60;97.00;98243.19;5075960;28;20020;-82
2024/01/03 11:20:08;;;;;;;47.10;21.23;;;;;;;7.31;98.56;98246.59;5075642;28;20064;-80